Ulm, Arkansas
Current Conditions -  °F | °C
As of 12:55 PM on Friday 31 Oct 2014 (Local Time) from KSGT Reporting Station
Few Clouds Few Clouds  
Wind Chill: 63°   Ceiling: Unl
Heat Index: 63°   Visibility: 10mi
Dew Point: 43°   Wind: 18mph
Humidity: 48%   Direction: 350°N
Pressure: 30.19"   Gusts: 25mph
Location:  34.58°N, 91.46°W
Report Text: KSGT 311755Z AUTO 35016G22KT 10SM FEW041 17/06 A3019 RMK AO1 10170 20110 52003
Loading
Personal Weather Stations






























Interactive Weather Map
Tropical Storm Tracking
New forecast layout! Learn more

10-Day Weather Forecast

Advertisements
Track Severe Weather on mobile